Terminal Aerodrome Forecast
Issued by NWS Sioux Falls, SD

Home | Current Version | Previous Version | Text Only | Print | Product List | Glossary On
Versions: 1 2 3 4 5 6 7 8 9 10 11 12 13 14 15
272
FTUS43 KFSD 241733 AAB
TAFFSD
TAF AMD
KFSD 241733Z 2418/2518 08012KT P6SM OVC008
     FM242100 06013KT 3SM -SN OVC003
     FM242300 05015G23KT 3/4SM -SN BLSN OVC003
     FM250000 04016G25KT 1/2SM SN BLSN OVC003
     FM250200 03018KT 3/4SM -SN BLSN OVC003
     FM250800 36018G26KT 1 1/2SM -SN BLSN OVC003
     FM251400 35019KT 3SM -SN BLSN OVC008=

USA.gov is the U.S. government's official web portal to all federal, state and local government web resources and services.